sensor_id;sensor_type;location;lat;lon;timestamp;temperature;humidity
21261;DHT22;10788;47.930;9.766;2023-03-01T00:00:19;-0.90;99.90
21261;DHT22;10788;47.930;9.766;2023-03-01T00:02:45;-0.80;99.90
21261;DHT22;10788;47.930;9.766;2023-03-01T00:05:10;-0.80;99.90
21261;DHT22;10788;47.930;9.766;2023-03-01T00:07:36;-0.80;99.90
21261;DHT22;10788;47.930;9.766;2023-03-01T00:10:02;-0.80;99.90
21261;DHT22;10788;47.930;9.766;2023-03-01T00:12:28;-0.70;99.90
21261;DHT22;10788;47.930;9.766;2023-03-01T00:14:54;-0.70;99.90
21261;DHT22;10788;47.930;9.766;2023-03-01T00:17:20;-0.70;99.90
21261;DHT22;10788;47.930;9.766;2023-03-01T00:19:45;-0.70;99.90
21261;DHT22;10788;47.930;9.766;2023-03-01T00:22:11;-0.60;99.90
21261;DHT22;10788;47.930;9.766;2023-03-01T00:24:36;-0.60;99.90
21261;DHT22;10788;47.930;9.766;2023-03-01T00:27:02;-0.50;99.90
21261;DHT22;10788;47.930;9.766;2023-03-01T00:29:28;-0.60;99.90
21261;DHT22;10788;47.930;9.766;2023-03-01T00:31:53;-0.50;99.90
21261;DHT22;10788;47.930;9.766;2023-03-01T00:34:19;-0.60;99.90
21261;DHT22;10788;47.930;9.766;2023-03-01T00:36:44;-0.50;99.90
21261;DHT22;10788;47.930;9.766;2023-03-01T00:39:13;-0.60;99.90
21261;DHT22;10788;47.930;9.766;2023-03-01T00:41:38;-0.60;99.90
21261;DHT22;10788;47.930;9.766;2023-03-01T00:44:05;-0.60;99.90
21261;DHT22;10788;47.930;9.766;2023-03-01T00:46:31;-0.50;99.90
21261;DHT22;10788;47.930;9.766;2023-03-01T00:48:57;-0.50;99.90
21261;DHT22;10788;47.930;9.766;2023-03-01T00:51:25;-0.50;99.90
21261;DHT22;10788;47.930;9.766;2023-03-01T00:53:52;-0.50;99.90
21261;DHT22;10788;47.930;9.766;2023-03-01T00:56:18;-0.50;99.90
21261;DHT22;10788;47.930;9.766;2023-03-01T00:58:44;-0.50;99.90
21261;DHT22;10788;47.930;9.766;2023-03-01T01:01:21;-0.40;99.90
21261;DHT22;10788;47.930;9.766;2023-03-01T01:03:53;-0.40;99.90
21261;DHT22;10788;47.930;9.766;2023-03-01T01:06:27;-0.40;99.90
21261;DHT22;10788;47.930;9.766;2023-03-01T01:08:53;-0.50;99.90
21261;DHT22;10788;47.930;9.766;2023-03-01T01:11:21;-0.50;99.90
21261;DHT22;10788;47.930;9.766;2023-03-01T01:13:47;-0.50;99.90
21261;DHT22;10788;47.930;9.766;2023-03-01T01:16:14;-0.50;99.90
21261;DHT22;10788;47.930;9.766;2023-03-01T01:18:40;-0.50;99.90
21261;DHT22;10788;47.930;9.766;2023-03-01T01:21:12;-0.50;99.90
21261;DHT22;10788;47.930;9.766;2023-03-01T01:23:40;-0.50;99.90
21261;DHT22;10788;47.930;9.766;2023-03-01T01:26:18;-0.60;99.90
21261;DHT22;10788;47.930;9.766;2023-03-01T01:28:44;-0.60;99.90
21261;DHT22;10788;47.930;9.766;2023-03-01T01:31:09;-0.50;99.90
21261;DHT22;10788;47.930;9.766;2023-03-01T01:33:35;-0.40;99.90
21261;DHT22;10788;47.930;9.766;2023-03-01T01:36:03;-0.50;99.90
21261;DHT22;10788;47.930;9.766;2023-03-01T01:38:29;-0.50;99.90
21261;DHT22;10788;47.930;9.766;2023-03-01T01:40:54;-0.50;99.90
21261;DHT22;10788;47.930;9.766;2023-03-01T01:43:33;-0.50;99.90
21261;DHT22;10788;47.930;9.766;2023-03-01T01:48:52;-0.40;99.90
21261;DHT22;10788;47.930;9.766;2023-03-01T01:51:22;-0.50;99.90
21261;DHT22;10788;47.930;9.766;2023-03-01T01:53:53;-0.50;99.90
21261;DHT22;10788;47.930;9.766;2023-03-01T01:56:21;-0.40;99.90
21261;DHT22;10788;47.930;9.766;2023-03-01T01:58:49;-0.40;99.90
21261;DHT22;10788;47.930;9.766;2023-03-01T02:01:16;-0.50;99.90
21261;DHT22;10788;47.930;9.766;2023-03-01T02:03:43;-0.50;99.90
21261;DHT22;10788;47.930;9.766;2023-03-01T02:06:25;-0.50;99.90
21261;DHT22;10788;47.930;9.766;2023-03-01T02:08:57;-0.50;99.90
21261;DHT22;10788;47.930;9.766;2023-03-01T02:11:23;-0.60;99.90
21261;DHT22;10788;47.930;9.766;2023-03-01T02:13:50;-0.60;99.90
21261;DHT22;10788;47.930;9.766;2023-03-01T02:16:16;-0.60;99.90
21261;DHT22;10788;47.930;9.766;2023-03-01T02:18:43;-0.50;99.90
21261;DHT22;10788;47.930;9.766;2023-03-01T02:23:44;-0.50;99.90
21261;DHT22;10788;47.930;9.766;2023-03-01T02:28:56;-0.60;99.90
21261;DHT22;10788;47.930;9.766;2023-03-01T02:31:22;-0.50;99.90
21261;DHT22;10788;47.930;9.766;2023-03-01T02:34:08;-0.50;99.90
21261;DHT22;10788;47.930;9.766;2023-03-01T02:36:54;-0.50;99.90
21261;DHT22;10788;47.930;9.766;2023-03-01T02:39:26;-0.50;99.90
21261;DHT22;10788;47.930;9.766;2023-03-01T02:41:54;-0.50;99.90
21261;DHT22;10788;47.930;9.766;2023-03-01T02:44:21;-0.50;99.90
21261;DHT22;10788;47.930;9.766;2023-03-01T02:46:50;-0.50;99.90
21261;DHT22;10788;47.930;9.766;2023-03-01T02:49:28;-0.60;99.90
21261;DHT22;10788;47.930;9.766;2023-03-01T02:57:10;-0.50;99.90
21261;DHT22;10788;47.930;9.766;2023-03-01T02:59:37;-0.50;99.90
21261;DHT22;10788;47.930;9.766;2023-03-01T03:02:19;-0.50;99.90
21261;DHT22;10788;47.930;9.766;2023-03-01T03:04:46;-0.50;99.90
21261;DHT22;10788;47.930;9.766;2023-03-01T03:07:12;-0.50;99.90
21261;DHT22;10788;47.930;9.766;2023-03-01T03:09:38;-0.50;99.90
21261;DHT22;10788;47.930;9.766;2023-03-01T03:12:03;-0.50;99.90
21261;DHT22;10788;47.930;9.766;2023-03-01T03:14:29;-0.60;99.90
21261;DHT22;10788;47.930;9.766;2023-03-01T03:16:55;-0.60;99.90
21261;DHT22;10788;47.930;9.766;2023-03-01T03:19:20;-0.50;99.90
21261;DHT22;10788;47.930;9.766;2023-03-01T03:21:46;-0.50;99.90
21261;DHT22;10788;47.930;9.766;2023-03-01T03:24:11;-0.50;99.90
21261;DHT22;10788;47.930;9.766;2023-03-01T03:26:37;-0.50;99.90
21261;DHT22;10788;47.930;9.766;2023-03-01T03:29:03;-0.40;99.90
21261;DHT22;10788;47.930;9.766;2023-03-01T03:31:29;-0.40;99.90
21261;DHT22;10788;47.930;9.766;2023-03-01T03:33:54;-0.40;99.90
21261;DHT22;10788;47.930;9.766;2023-03-01T03:36:22;-0.50;99.90
21261;DHT22;10788;47.930;9.766;2023-03-01T03:38:48;-0.40;99.90
21261;DHT22;10788;47.930;9.766;2023-03-01T03:41:15;-0.40;99.90
21261;DHT22;10788;47.930;9.766;2023-03-01T03:43:41;-0.50;99.90
21261;DHT22;10788;47.930;9.766;2023-03-01T03:46:08;-0.40;99.90
21261;DHT22;10788;47.930;9.766;2023-03-01T03:48:42;-0.40;99.90
21261;DHT22;10788;47.930;9.766;2023-03-01T03:51:13;-0.50;99.90
21261;DHT22;10788;47.930;9.766;2023-03-01T03:53:40;-0.50;99.90
21261;DHT22;10788;47.930;9.766;2023-03-01T03:56:06;-0.50;99.90
21261;DHT22;10788;47.930;9.766;2023-03-01T03:58:32;-0.50;99.90
21261;DHT22;10788;47.930;9.766;2023-03-01T04:00:58;-0.40;99.90
21261;DHT22;10788;47.930;9.766;2023-03-01T04:03:25;-0.50;99.90
21261;DHT22;10788;47.930;9.766;2023-03-01T04:05:51;-0.50;99.90
21261;DHT22;10788;47.930;9.766;2023-03-01T04:08:23;-0.50;99.90
21261;DHT22;10788;47.930;9.766;2023-03-01T04:10:51;-0.50;99.90
21261;DHT22;10788;47.930;9.766;2023-03-01T04:13:20;-0.50;99.90
21261;DHT22;10788;47.930;9.766;2023-03-01T04:15:50;-0.50;99.90
21261;DHT22;10788;47.930;9.766;2023-03-01T04:18:17;-0.50;99.90
21261;DHT22;10788;47.930;9.766;2023-03-01T04:20:44;-0.50;99.90
21261;DHT22;10788;47.930;9.766;2023-03-01T04:23:18;-0.40;99.90
21261;DHT22;10788;47.930;9.766;2023-03-01T04:25:47;-0.50;99.90
21261;DHT22;10788;47.930;9.766;2023-03-01T04:28:25;-0.50;99.90
21261;DHT22;10788;47.930;9.766;2023-03-01T04:30:52;-0.50;99.90
21261;DHT22;10788;47.930;9.766;2023-03-01T04:33:18;-0.50;99.90
21261;DHT22;10788;47.930;9.766;2023-03-01T04:35:44;-0.50;99.90
21261;DHT22;10788;47.930;9.766;2023-03-01T04:38:10;-0.40;99.90
21261;DHT22;10788;47.930;9.766;2023-03-01T04:40:36;-0.50;99.90
21261;DHT22;10788;47.930;9.766;2023-03-01T04:43:03;-0.60;99.90
21261;DHT22;10788;47.930;9.766;2023-03-01T04:45:29;-0.60;99.90
21261;DHT22;10788;47.930;9.766;2023-03-01T04:47:54;-0.70;99.90
21261;DHT22;10788;47.930;9.766;2023-03-01T04:50:20;-0.50;99.90
21261;DHT22;10788;47.930;9.766;2023-03-01T04:52:47;-0.50;99.90
21261;DHT22;10788;47.930;9.766;2023-03-01T04:55:13;-0.50;99.90
21261;DHT22;10788;47.930;9.766;2023-03-01T04:57:39;-0.50;99.90
21261;DHT22;10788;47.930;9.766;2023-03-01T05:00:07;-0.50;99.90
21261;DHT22;10788;47.930;9.766;2023-03-01T05:02:59;-0.50;99.90
21261;DHT22;10788;47.930;9.766;2023-03-01T05:07:56;-0.50;99.90
21261;DHT22;10788;47.930;9.766;2023-03-01T05:10:23;-0.50;99.90
21261;DHT22;10788;47.930;9.766;2023-03-01T05:12:49;-0.50;99.90
21261;DHT22;10788;47.930;9.766;2023-03-01T05:15:15;-0.40;99.90
21261;DHT22;10788;47.930;9.766;2023-03-01T05:17:40;-0.50;99.90
21261;DHT22;10788;47.930;9.766;2023-03-01T05:20:06;-0.50;99.90
21261;DHT22;10788;47.930;9.766;2023-03-01T05:22:35;-0.50;99.90
21261;DHT22;10788;47.930;9.766;2023-03-01T05:25:02;-0.50;99.90
21261;DHT22;10788;47.930;9.766;2023-03-01T05:27:27;-0.50;99.90
21261;DHT22;10788;47.930;9.766;2023-03-01T05:29:55;-0.40;99.90
21261;DHT22;10788;47.930;9.766;2023-03-01T05:32:20;-0.50;99.90
21261;DHT22;10788;47.930;9.766;2023-03-01T05:34:46;-0.40;99.90
21261;DHT22;10788;47.930;9.766;2023-03-01T05:37:12;-0.50;99.90
21261;DHT22;10788;47.930;9.766;2023-03-01T05:39:38;-0.50;99.90
21261;DHT22;10788;47.930;9.766;2023-03-01T05:42:04;-0.50;99.90
21261;DHT22;10788;47.930;9.766;2023-03-01T05:44:30;-0.50;99.90
21261;DHT22;10788;47.930;9.766;2023-03-01T05:46:56;-0.50;99.90
21261;DHT22;10788;47.930;9.766;2023-03-01T05:49:22;-0.60;99.90
21261;DHT22;10788;47.930;9.766;2023-03-01T05:51:52;-0.50;99.90
21261;DHT22;10788;47.930;9.766;2023-03-01T05:54:20;-0.50;99.90
21261;DHT22;10788;47.930;9.766;2023-03-01T05:56:47;-0.50;99.90
21261;DHT22;10788;47.930;9.766;2023-03-01T05:59:12;-0.40;99.90
21261;DHT22;10788;47.930;9.766;2023-03-01T06:01:39;-0.60;99.90
21261;DHT22;10788;47.930;9.766;2023-03-01T06:04:05;-0.50;99.90
21261;DHT22;10788;47.930;9.766;2023-03-01T06:06:34;-0.50;99.90
21261;DHT22;10788;47.930;9.766;2023-03-01T06:09:03;-0.50;99.90
21261;DHT22;10788;47.930;9.766;2023-03-01T06:11:28;-0.40;99.90
21261;DHT22;10788;47.930;9.766;2023-03-01T06:13:54;-0.50;99.90
21261;DHT22;10788;47.930;9.766;2023-03-01T06:16:19;-0.50;99.90
21261;DHT22;10788;47.930;9.766;2023-03-01T06:18:45;-0.50;99.90
21261;DHT22;10788;47.930;9.766;2023-03-01T06:21:11;-0.50;99.90
21261;DHT22;10788;47.930;9.766;2023-03-01T06:23:36;-0.60;99.90
21261;DHT22;10788;47.930;9.766;2023-03-01T06:26:06;-0.60;99.90
21261;DHT22;10788;47.930;9.766;2023-03-01T06:28:32;-0.50;99.90
21261;DHT22;10788;47.930;9.766;2023-03-01T06:30:57;-0.50;99.90
21261;DHT22;10788;47.930;9.766;2023-03-01T06:33:23;-0.40;99.90
21261;DHT22;10788;47.930;9.766;2023-03-01T06:35:50;-0.40;99.90
21261;DHT22;10788;47.930;9.766;2023-03-01T06:38:16;-0.40;99.90
21261;DHT22;10788;47.930;9.766;2023-03-01T06:40:44;-0.50;99.90
21261;DHT22;10788;47.930;9.766;2023-03-01T06:43:11;-0.50;99.90
21261;DHT22;10788;47.930;9.766;2023-03-01T06:45:37;-0.60;99.90
21261;DHT22;10788;47.930;9.766;2023-03-01T06:48:07;-0.60;99.90
21261;DHT22;10788;47.930;9.766;2023-03-01T06:50:34;-0.50;99.90
21261;DHT22;10788;47.930;9.766;2023-03-01T06:53:00;-0.60;99.90
21261;DHT22;10788;47.930;9.766;2023-03-01T06:55:26;-0.50;99.90
21261;DHT22;10788;47.930;9.766;2023-03-01T06:57:58;-0.50;99.90
21261;DHT22;10788;47.930;9.766;2023-03-01T07:00:25;-0.40;99.90
21261;DHT22;10788;47.930;9.766;2023-03-01T07:02:51;-0.40;99.90
21261;DHT22;10788;47.930;9.766;2023-03-01T07:05:17;-0.40;99.90
21261;DHT22;10788;47.930;9.766;2023-03-01T07:07:43;-0.40;99.90
21261;DHT22;10788;47.930;9.766;2023-03-01T07:10:09;-0.50;99.90
21261;DHT22;10788;47.930;9.766;2023-03-01T07:12:34;-0.50;99.90
21261;DHT22;10788;47.930;9.766;2023-03-01T07:15:00;-0.40;99.90
21261;DHT22;10788;47.930;9.766;2023-03-01T07:17:26;-0.40;99.90
21261;DHT22;10788;47.930;9.766;2023-03-01T07:19:51;-0.40;99.90
21261;DHT22;10788;47.930;9.766;2023-03-01T07:22:17;-0.40;99.90
21261;DHT22;10788;47.930;9.766;2023-03-01T07:24:43;-0.40;99.90
21261;DHT22;10788;47.930;9.766;2023-03-01T07:27:09;-0.40;99.90
21261;DHT22;10788;47.930;9.766;2023-03-01T07:29:35;-0.40;99.90
21261;DHT22;10788;47.930;9.766;2023-03-01T07:32:03;-0.40;99.90
21261;DHT22;10788;47.930;9.766;2023-03-01T07:34:28;-0.40;99.90
21261;DHT22;10788;47.930;9.766;2023-03-01T07:36:54;-0.50;99.90
21261;DHT22;10788;47.930;9.766;2023-03-01T07:39:20;-0.40;99.90
21261;DHT22;10788;47.930;9.766;2023-03-01T07:41:48;-0.40;99.90
21261;DHT22;10788;47.930;9.766;2023-03-01T07:44:14;-0.40;99.90
21261;DHT22;10788;47.930;9.766;2023-03-01T07:46:41;-0.30;99.90
21261;DHT22;10788;47.930;9.766;2023-03-01T07:49:06;-0.40;99.90
21261;DHT22;10788;47.930;9.766;2023-03-01T07:51:32;-0.40;99.90
21261;DHT22;10788;47.930;9.766;2023-03-01T07:53:57;-0.40;99.90
21261;DHT22;10788;47.930;9.766;2023-03-01T07:56:23;-0.40;99.90
21261;DHT22;10788;47.930;9.766;2023-03-01T07:58:49;-0.40;99.90
21261;DHT22;10788;47.930;9.766;2023-03-01T08:01:16;-0.40;99.90
21261;DHT22;10788;47.930;9.766;2023-03-01T08:03:42;-0.40;99.90
21261;DHT22;10788;47.930;9.766;2023-03-01T08:06:10;-0.50;99.90
21261;DHT22;10788;47.930;9.766;2023-03-01T08:08:36;-0.40;99.90
21261;DHT22;10788;47.930;9.766;2023-03-01T08:11:03;-0.40;99.90
21261;DHT22;10788;47.930;9.766;2023-03-01T08:13:30;-0.40;99.90
21261;DHT22;10788;47.930;9.766;2023-03-01T08:16:11;-0.40;99.90
21261;DHT22;10788;47.930;9.766;2023-03-01T08:18:37;-0.40;99.90
21261;DHT22;10788;47.930;9.766;2023-03-01T08:21:14;-0.40;99.90
21261;DHT22;10788;47.930;9.766;2023-03-01T08:23:41;-0.30;99.90
21261;DHT22;10788;47.930;9.766;2023-03-01T08:26:18;-0.30;99.90
21261;DHT22;10788;47.930;9.766;2023-03-01T08:28:44;-0.30;99.90
21261;DHT22;10788;47.930;9.766;2023-03-01T08:31:19;-0.30;99.90
21261;DHT22;10788;47.930;9.766;2023-03-01T08:33:46;-0.20;99.90
21261;DHT22;10788;47.930;9.766;2023-03-01T08:36:20;-0.30;99.90
21261;DHT22;10788;47.930;9.766;2023-03-01T08:38:46;-0.30;99.90
21261;DHT22;10788;47.930;9.766;2023-03-01T08:41:12;-0.20;99.90
21261;DHT22;10788;47.930;9.766;2023-03-01T08:43:37;-0.20;99.90
21261;DHT22;10788;47.930;9.766;2023-03-01T08:46:03;-0.20;99.90
21261;DHT22;10788;47.930;9.766;2023-03-01T08:48:29;-0.20;99.90
21261;DHT22;10788;47.930;9.766;2023-03-01T08:50:55;-0.10;99.90
21261;DHT22;10788;47.930;9.766;2023-03-01T08:53:20;-0.10;99.90
21261;DHT22;10788;47.930;9.766;2023-03-01T08:55:46;-0.10;99.90
21261;DHT22;10788;47.930;9.766;2023-03-01T08:58:12;-0.10;99.90
21261;DHT22;10788;47.930;9.766;2023-03-01T09:00:37;-0.10;99.90
21261;DHT22;10788;47.930;9.766;2023-03-01T09:03:03;-0.10;99.90
21261;DHT22;10788;47.930;9.766;2023-03-01T09:05:32;0.00;99.90
21261;DHT22;10788;47.930;9.766;2023-03-01T09:07:58;0.00;99.90
21261;DHT22;10788;47.930;9.766;2023-03-01T09:10:23;0.00;99.90
21261;DHT22;10788;47.930;9.766;2023-03-01T09:12:49;0.00;99.90
21261;DHT22;10788;47.930;9.766;2023-03-01T09:15:16;-0.10;99.90
21261;DHT22;10788;47.930;9.766;2023-03-01T09:17:41;-0.10;99.90
21261;DHT22;10788;47.930;9.766;2023-03-01T09:20:07;0.00;99.90
21261;DHT22;10788;47.930;9.766;2023-03-01T09:22:34;0.00;99.90
21261;DHT22;10788;47.930;9.766;2023-03-01T09:25:00;-0.10;99.90
21261;DHT22;10788;47.930;9.766;2023-03-01T09:27:26;-0.20;99.90
21261;DHT22;10788;47.930;9.766;2023-03-01T09:29:51;-0.20;99.90
21261;DHT22;10788;47.930;9.766;2023-03-01T09:32:17;-0.20;99.90
21261;DHT22;10788;47.930;9.766;2023-03-01T09:34:43;-0.30;99.90
21261;DHT22;10788;47.930;9.766;2023-03-01T09:37:30;-0.30;99.90
21261;DHT22;10788;47.930;9.766;2023-03-01T09:39:56;-0.10;99.90
21261;DHT22;10788;47.930;9.766;2023-03-01T09:42:22;-0.10;99.90
21261;DHT22;10788;47.930;9.766;2023-03-01T09:47:19;-0.10;99.90
21261;DHT22;10788;47.930;9.766;2023-03-01T09:50:12;-0.20;99.90
21261;DHT22;10788;47.930;9.766;2023-03-01T09:55:30;-0.10;99.90
21261;DHT22;10788;47.930;9.766;2023-03-01T09:57:59;-0.10;99.90
21261;DHT22;10788;47.930;9.766;2023-03-01T10:00:39;-0.30;99.90
21261;DHT22;10788;47.930;9.766;2023-03-01T10:03:15;-0.30;99.90
21261;DHT22;10788;47.930;9.766;2023-03-01T10:08:33;-0.20;99.90
21261;DHT22;10788;47.930;9.766;2023-03-01T10:11:03;0.00;99.90
21261;DHT22;10788;47.930;9.766;2023-03-01T10:13:50;-0.10;99.90
21261;DHT22;10788;47.930;9.766;2023-03-01T10:16:48;-0.10;99.90
21261;DHT22;10788;47.930;9.766;2023-03-01T10:19:17;-0.10;99.90
21261;DHT22;10788;47.930;9.766;2023-03-01T10:21:46;0.00;99.90
21261;DHT22;10788;47.930;9.766;2023-03-01T10:24:14;-0.10;99.90
21261;DHT22;10788;47.930;9.766;2023-03-01T10:26:50;-0.10;99.90
21261;DHT22;10788;47.930;9.766;2023-03-01T10:29:21;0.00;99.90
21261;DHT22;10788;47.930;9.766;2023-03-01T10:31:51;0.10;99.90
21261;DHT22;10788;47.930;9.766;2023-03-01T10:34:35;0.00;99.90
21261;DHT22;10788;47.930;9.766;2023-03-01T10:39:37;0.10;99.90
21261;DHT22;10788;47.930;9.766;2023-03-01T10:42:27;0.20;99.90
21261;DHT22;10788;47.930;9.766;2023-03-01T10:44:53;0.20;99.90
21261;DHT22;10788;47.930;9.766;2023-03-01T10:47:26;0.10;99.90
21261;DHT22;10788;47.930;9.766;2023-03-01T10:50:01;0.10;99.90
21261;DHT22;10788;47.930;9.766;2023-03-01T10:52:30;0.10;99.90
21261;DHT22;10788;47.930;9.766;2023-03-01T10:54:59;0.20;99.90
21261;DHT22;10788;47.930;9.766;2023-03-01T10:57:43;0.20;99.90
21261;DHT22;10788;47.930;9.766;2023-03-01T11:00:17;0.20;99.90
21261;DHT22;10788;47.930;9.766;2023-03-01T11:03:08;0.20;99.90
21261;DHT22;10788;47.930;9.766;2023-03-01T11:05:35;0.30;99.90
21261;DHT22;10788;47.930;9.766;2023-03-01T11:08:02;0.20;99.90
21261;DHT22;10788;47.930;9.766;2023-03-01T11:10:33;0.30;99.90
21261;DHT22;10788;47.930;9.766;2023-03-01T11:15:40;0.30;99.90
21261;DHT22;10788;47.930;9.766;2023-03-01T11:18:19;0.30;99.90
21261;DHT22;10788;47.930;9.766;2023-03-01T11:20:46;0.40;99.90
21261;DHT22;10788;47.930;9.766;2023-03-01T11:23:15;0.50;99.90
21261;DHT22;10788;47.930;9.766;2023-03-01T11:25:43;0.40;99.90
21261;DHT22;10788;47.930;9.766;2023-03-01T11:28:17;0.30;99.90
21261;DHT22;10788;47.930;9.766;2023-03-01T11:31:03;0.40;99.90
21261;DHT22;10788;47.930;9.766;2023-03-01T11:36:15;0.70;99.90
21261;DHT22;10788;47.930;9.766;2023-03-01T11:38:41;0.80;99.90
21261;DHT22;10788;47.930;9.766;2023-03-01T11:41:23;0.70;99.90
21261;DHT22;10788;47.930;9.766;2023-03-01T11:43:55;0.60;99.90
21261;DHT22;10788;47.930;9.766;2023-03-01T11:52:34;0.60;99.90
21261;DHT22;10788;47.930;9.766;2023-03-01T11:57:55;0.80;99.90
21261;DHT22;10788;47.930;9.766;2023-03-01T12:03:30;0.90;99.90
21261;DHT22;10788;47.930;9.766;2023-03-01T12:08:46;1.00;99.90
21261;DHT22;10788;47.930;9.766;2023-03-01T12:25:28;1.00;99.90
21261;DHT22;10788;47.930;9.766;2023-03-01T12:33:58;1.20;99.90
21261;DHT22;10788;47.930;9.766;2023-03-01T12:41:55;1.30;99.90
21261;DHT22;10788;47.930;9.766;2023-03-01T12:47:22;1.00;99.90
21261;DHT22;10788;47.930;9.766;2023-03-01T12:50:00;1.00;99.90
21261;DHT22;10788;47.930;9.766;2023-03-01T12:52:47;1.10;99.90
21261;DHT22;10788;47.930;9.766;2023-03-01T12:58:03;1.10;99.90
21261;DHT22;10788;47.930;9.766;2023-03-01T13:00:37;1.10;99.90
21261;DHT22;10788;47.930;9.766;2023-03-01T13:06:11;1.00;99.90
21261;DHT22;10788;47.930;9.766;2023-03-01T13:08:48;1.00;99.90
21261;DHT22;10788;47.930;9.766;2023-03-01T13:11:20;1.10;99.90
21261;DHT22;10788;47.930;9.766;2023-03-01T13:13:46;1.10;99.90
21261;DHT22;10788;47.930;9.766;2023-03-01T13:19:15;1.10;99.90
21261;DHT22;10788;47.930;9.766;2023-03-01T13:21:41;1.20;99.90
21261;DHT22;10788;47.930;9.766;2023-03-01T13:34:50;1.20;99.90
21261;DHT22;10788;47.930;9.766;2023-03-01T13:37:35;1.30;99.90
21261;DHT22;10788;47.930;9.766;2023-03-01T13:40:56;1.30;99.90
21261;DHT22;10788;47.930;9.766;2023-03-01T13:42:52;1.30;99.90
21261;DHT22;10788;47.930;9.766;2023-03-01T13:47:55;1.30;99.90
21261;DHT22;10788;47.930;9.766;2023-03-01T13:50:25;1.20;99.90
21261;DHT22;10788;47.930;9.766;2023-03-01T13:52:59;1.20;99.90
21261;DHT22;10788;47.930;9.766;2023-03-01T13:55:55;1.20;99.90
21261;DHT22;10788;47.930;9.766;2023-03-01T14:00:46;1.10;99.90
21261;DHT22;10788;47.930;9.766;2023-03-01T14:03:18;1.10;99.90
21261;DHT22;10788;47.930;9.766;2023-03-01T14:08:25;1.30;99.90
21261;DHT22;10788;47.930;9.766;2023-03-01T14:19:07;1.70;99.90
21261;DHT22;10788;47.930;9.766;2023-03-01T14:21:34;1.80;99.90
21261;DHT22;10788;47.930;9.766;2023-03-01T14:24:02;1.80;99.90
21261;DHT22;10788;47.930;9.766;2023-03-01T14:26:31;1.70;99.90
21261;DHT22;10788;47.930;9.766;2023-03-01T14:28:57;1.70;99.90
21261;DHT22;10788;47.930;9.766;2023-03-01T14:31:36;1.70;99.90
21261;DHT22;10788;47.930;9.766;2023-03-01T14:34:03;1.70;99.90
21261;DHT22;10788;47.930;9.766;2023-03-01T14:36:32;1.90;99.90
21261;DHT22;10788;47.930;9.766;2023-03-01T14:38:58;1.80;99.90
21261;DHT22;10788;47.930;9.766;2023-03-01T14:41:32;1.90;99.90
21261;DHT22;10788;47.930;9.766;2023-03-01T14:44:02;2.00;99.90
21261;DHT22;10788;47.930;9.766;2023-03-01T14:46:40;2.00;99.90
21261;DHT22;10788;47.930;9.766;2023-03-01T14:49:11;2.00;99.90
21261;DHT22;10788;47.930;9.766;2023-03-01T14:51:40;1.90;99.90
21261;DHT22;10788;47.930;9.766;2023-03-01T14:56:59;2.00;99.90
21261;DHT22;10788;47.930;9.766;2023-03-01T14:59:25;2.10;99.90
21261;DHT22;10788;47.930;9.766;2023-03-01T15:01:53;2.20;99.90
21261;DHT22;10788;47.930;9.766;2023-03-01T15:04:21;2.20;99.90
21261;DHT22;10788;47.930;9.766;2023-03-01T15:06:51;2.10;99.90
21261;DHT22;10788;47.930;9.766;2023-03-01T15:09:17;2.10;99.90
21261;DHT22;10788;47.930;9.766;2023-03-01T15:11:43;2.10;99.90
21261;DHT22;10788;47.930;9.766;2023-03-01T15:14:43;2.10;99.90
21261;DHT22;10788;47.930;9.766;2023-03-01T15:17:38;2.20;99.90
21261;DHT22;10788;47.930;9.766;2023-03-01T15:20:16;2.20;99.90
21261;DHT22;10788;47.930;9.766;2023-03-01T15:22:45;2.30;99.90
21261;DHT22;10788;47.930;9.766;2023-03-01T15:25:33;2.20;99.90
21261;DHT22;10788;47.930;9.766;2023-03-01T15:28:01;2.20;99.90
21261;DHT22;10788;47.930;9.766;2023-03-01T15:30:32;2.30;99.90
21261;DHT22;10788;47.930;9.766;2023-03-01T15:35:54;2.40;99.90
21261;DHT22;10788;47.930;9.766;2023-03-01T15:38:54;2.40;99.90
21261;DHT22;10788;47.930;9.766;2023-03-01T15:43:49;2.30;99.90
21261;DHT22;10788;47.930;9.766;2023-03-01T15:46:17;2.30;99.90
21261;DHT22;10788;47.930;9.766;2023-03-01T15:48:55;2.30;99.90
21261;DHT22;10788;47.930;9.766;2023-03-01T15:51:48;2.40;99.90
21261;DHT22;10788;47.930;9.766;2023-03-01T15:54:24;2.40;99.90
21261;DHT22;10788;47.930;9.766;2023-03-01T15:56:50;2.30;99.90
21261;DHT22;10788;47.930;9.766;2023-03-01T15:59:16;2.30;99.90
21261;DHT22;10788;47.930;9.766;2023-03-01T16:01:43;2.40;99.90
21261;DHT22;10788;47.930;9.766;2023-03-01T16:04:13;2.40;99.90
21261;DHT22;10788;47.930;9.766;2023-03-01T16:06:52;2.50;99.90
21261;DHT22;10788;47.930;9.766;2023-03-01T16:09:24;2.50;99.90
21261;DHT22;10788;47.930;9.766;2023-03-01T16:11:51;2.50;99.90
21261;DHT22;10788;47.930;9.766;2023-03-01T16:14:17;2.50;99.90
21261;DHT22;10788;47.930;9.766;2023-03-01T16:16:43;2.50;99.90
21261;DHT22;10788;47.930;9.766;2023-03-01T16:19:09;2.40;99.90
21261;DHT22;10788;47.930;9.766;2023-03-01T16:21:36;2.40;99.90
21261;DHT22;10788;47.930;9.766;2023-03-01T16:24:01;2.20;99.90
21261;DHT22;10788;47.930;9.766;2023-03-01T16:26:27;2.20;99.90
21261;DHT22;10788;47.930;9.766;2023-03-01T16:28:56;2.10;99.90
21261;DHT22;10788;47.930;9.766;2023-03-01T16:31:24;2.10;99.90
21261;DHT22;10788;47.930;9.766;2023-03-01T16:33:53;2.10;99.90
21261;DHT22;10788;47.930;9.766;2023-03-01T16:36:20;2.00;99.90
21261;DHT22;10788;47.930;9.766;2023-03-01T16:38:48;2.00;99.90
21261;DHT22;10788;47.930;9.766;2023-03-01T16:41:16;2.00;99.90
21261;DHT22;10788;47.930;9.766;2023-03-01T16:43:42;1.90;99.90
21261;DHT22;10788;47.930;9.766;2023-03-01T16:46:12;1.90;99.90
21261;DHT22;10788;47.930;9.766;2023-03-01T16:48:38;1.90;99.90
21261;DHT22;10788;47.930;9.766;2023-03-01T16:51:05;1.90;99.90
21261;DHT22;10788;47.930;9.766;2023-03-01T16:53:31;1.90;99.90
21261;DHT22;10788;47.930;9.766;2023-03-01T16:55:57;1.90;99.90
21261;DHT22;10788;47.930;9.766;2023-03-01T16:58:23;1.80;99.90
21261;DHT22;10788;47.930;9.766;2023-03-01T17:00:51;1.80;99.90
21261;DHT22;10788;47.930;9.766;2023-03-01T17:03:16;1.80;99.90
21261;DHT22;10788;47.930;9.766;2023-03-01T17:05:42;1.80;99.90
21261;DHT22;10788;47.930;9.766;2023-03-01T17:08:08;1.80;99.90
21261;DHT22;10788;47.930;9.766;2023-03-01T17:10:33;1.80;99.90
21261;DHT22;10788;47.930;9.766;2023-03-01T17:12:59;1.80;99.90
21261;DHT22;10788;47.930;9.766;2023-03-01T17:15:25;1.80;99.90
21261;DHT22;10788;47.930;9.766;2023-03-01T17:17:50;1.70;99.90
21261;DHT22;10788;47.930;9.766;2023-03-01T17:20:16;1.70;99.90
21261;DHT22;10788;47.930;9.766;2023-03-01T17:22:42;1.70;99.90
21261;DHT22;10788;47.930;9.766;2023-03-01T17:25:09;1.70;99.90
21261;DHT22;10788;47.930;9.766;2023-03-01T17:27:37;1.80;99.90
21261;DHT22;10788;47.930;9.766;2023-03-01T17:30:04;1.80;99.90
21261;DHT22;10788;47.930;9.766;2023-03-01T17:32:30;1.80;99.90
21261;DHT22;10788;47.930;9.766;2023-03-01T17:34:55;1.80;99.90
21261;DHT22;10788;47.930;9.766;2023-03-01T17:37:21;1.80;99.90
21261;DHT22;10788;47.930;9.766;2023-03-01T17:39:47;1.70;99.90
21261;DHT22;10788;47.930;9.766;2023-03-01T17:42:12;1.70;99.90
21261;DHT22;10788;47.930;9.766;2023-03-01T17:44:38;1.70;99.90
21261;DHT22;10788;47.930;9.766;2023-03-01T17:47:04;1.70;99.90